Airfield :
LOGIN :

Register | Disclaimer

   EN    FR    IT 

 










Legend :    VFR   Marginal VFR   IFR   Intensive IFR   Very Intensive IFR
Visi :
Ceiling :
>= 8 km
>= 3000ft
5 to 8 km
1000 to 3000 ft
1500m to 5 km
500 to 1000 ft
800 to 1500m
200 to 500 ft
< 800m
< 200 ft
Symbols :   Thunderstorms  Fog  Heavy snow  Heavy precipitations  Wind > 20 kt
SIGMETs :     Misc.  Thunderstorms  Icing  Turbulence  Mountain Waves  Volcanic Ashes







- Airport Elevation : 659 ft
- IATA code : LYN
- Download approach charts


LFLY - Lyon Bron

CURRENT METAR :
  • 202300Z AUTO VRB02KT 3000 RA BR BKN005/// BKN016/// BKN022/// ///CB 05/04 Q1007 TEMPO 9999 NSW BKN008

EXPIRED METARs :
  • 202230Z AUTO VRB03KT 4300 -RA BR BKN021/// BKN030/// OVC036/// ///TCU 05/04 Q1006 TEMPO 9999 NSW BKN008
  • 202200Z AUTO VRB02KT 3500 RA BR BKN020/// OVC033/// ///TCU 05/03 Q1005 TEMPO SCT012 OVC020 BECMG 9999 NSW
  • 202130Z AUTO 36003KT 340V040 4800 RA BR BKN020/// BKN026/// OVC038/// ///TCU 05/03 Q1005 TEMPO SCT012 OVC020 BECMG 9999 NSW
  • 202100Z AUTO 01003KT 5000 RA BR BKN021/// BKN033/// OVC044/// ///TCU 05/03 Q1004 TEMPO NSW SCT012 OVC020
  • 202030Z AUTO VRB03KT 6000 -RA OVC049/// ///TCU 05/03 Q1004 TEMPO SCT012 OVC020

TAF TAF LFLY
Valid from the 21 at 00:00 until the 22 at 00:00 UTC


202300Z 2100/2124 36003KT 5000 BR BKN020 OVC030
PROB40
TEMPO 2100/2107 4000 RA BKN008
BECMG 2109/2112 7000 SCT020 SCT040
BECMG 2116/2118 5000 BR BKN008
ATIS : +33 4 72 15 87 96
No reported NOTAMs for that airfield.
2 SIGMETs reported for the Marseille FIR (LFMM) :
 
Embedded thunderstorms
LFMM SIGMET 5 VALID 210000/210400 LFPW
LFMM MARSEILLE FIR/UIR EMBD TS FCST WI N4115 E00845 - N4115 E00800 - N3900 E00800 - N3900 E00430 - N4200 E00430 - N4200 E00415 - N4445 E00445 - N4115 E00845 TOP FL340 STNR NC=
Embedded thunderstorms
LFMM SIGMET 4 VALID 202100/210000 LFPW
LFMM MARSEILLE FIR/UIR EMBD TS FCST WI N3900 E00530 - N3900 E00430 - N4200 E00430 - N4215 E00315 - N4430 E00430 - N4145 E00800 - N3900 E00530 TOP FL340 STNR NC=



MET'MAP, your aeronautical weather chart ! - Copyright ORBIFLY December 2007 - Disclaimer

ORBIFLY MET'MAP TEAM :

Programming & Development : Alexandra Zaïnal
Concept & Development : Baudouin d'Aumeries
Co-Development & Prog : Marc-Olivier Méhu
Technical & hardware support : Manuel Goepfert

Contact : metmap@orbifly.com




SOURCES & CREDITS :

   NOAA